createdAt,value
2019-02-07T00:04:19.774Z,101027.19
2019-02-07T00:07:23.175Z,101012.05
2019-02-07T00:10:26.961Z,101005.11
2019-02-07T00:13:32.327Z,100993.25
2019-02-07T00:16:35.798Z,100993.67
2019-02-07T00:19:39.440Z,100986.52
2019-02-07T00:22:44.705Z,100986.34
2019-02-07T00:25:48.365Z,100976.28
2019-02-07T00:28:51.764Z,100972.02
2019-02-07T00:31:56.891Z,100971.25
2019-02-07T00:35:00.351Z,100978.62
2019-02-07T00:38:03.758Z,100964.33
2019-02-07T00:41:26.495Z,100941.02
2019-02-07T00:44:30.268Z,100939.02
2019-02-07T00:47:33.910Z,100933.58
2019-02-07T00:50:37.326Z,100921.39
2019-02-07T00:53:42.449Z,100911.73
2019-02-07T00:56:46.081Z,100892.17
2019-02-07T00:59:49.800Z,100889.37
2019-02-07T01:02:54.055Z,100885.19
2019-02-07T01:05:57.763Z,100876.66
2019-02-07T01:09:01.155Z,100882.03
2019-02-07T01:12:44.640Z,100879.65
2019-02-07T01:15:48.278Z,100883.28
2019-02-07T01:18:53.642Z,100871.52
2019-02-07T01:21:57.114Z,100864.13
2019-02-07T01:25:00.519Z,100854.05
2019-02-07T01:28:05.633Z,100852.02
2019-02-07T01:31:09.036Z,100849.56
2019-02-07T01:34:12.737Z,100846.33
2019-02-07T01:37:17.853Z,100838.78
2019-02-07T01:41:01.153Z,100832.95
2019-02-07T01:44:24.506Z,100828.71
2019-02-07T01:47:27.974Z,100810.92
2019-02-07T01:50:31.450Z,100800.16
2019-02-07T01:53:34.907Z,100793.36
2019-02-07T01:56:38.316Z,100788.63
2019-02-07T01:59:41.731Z,100786.58
2019-02-07T02:02:45.175Z,100785.58
2019-02-07T02:05:48.586Z,100774.14
2019-02-07T02:08:52.042Z,100778.99
2019-02-07T02:11:55.452Z,100766.48
2019-02-07T02:14:58.863Z,100768.13
2019-02-07T02:18:02.250Z,100764.42
2019-02-07T02:21:06.113Z,100766.48
2019-02-07T02:24:09.952Z,100763.59
2019-02-07T02:27:13.423Z,100760.66
2019-02-07T02:30:56.727Z,100759.42
2019-02-07T02:34:00.476Z,100757.83
2019-02-07T02:37:06.017Z,100748.24
2019-02-07T02:40:49.328Z,100737.89
2019-02-07T02:43:52.713Z,100735.20
2019-02-07T02:46:56.456Z,100731.95
2019-02-07T02:49:59.870Z,100727.73
2019-02-07T02:53:03.564Z,100717.16
2019-02-07T02:56:06.965Z,100706.41
2019-02-07T02:59:10.427Z,100712.06
2019-02-07T03:02:33.082Z,100702.63
2019-02-07T03:05:55.666Z,100696.36
2019-02-07T03:09:37.530Z,100697.59
2019-02-07T03:13:00.574Z,100709.55
2019-02-07T03:16:23.593Z,100699.91
2019-02-07T03:19:46.111Z,100698.52
2019-02-07T03:23:08.632Z,100699.30
2019-02-07T03:26:31.478Z,100699.76
2019-02-07T03:29:53.998Z,100686.98
2019-02-07T03:33:16.753Z,100668.08
2019-02-07T03:39:49.741Z,100658.80
2019-02-07T03:43:12.694Z,100647.61
2019-02-07T03:46:17.723Z,100649.38
2019-02-07T03:56:15.223Z,100644.27
2019-02-07T03:59:37.753Z,100634.73
2019-02-07T04:03:00.279Z,100621.25
2019-02-07T04:16:15.073Z,100590.61
2019-02-07T04:19:32.556Z,100588.82
2019-02-07T04:26:05.179Z,100589.09
2019-02-07T04:29:27.969Z,100571.16
2019-02-07T04:32:50.747Z,100565.00
2019-02-07T04:42:51.866Z,100548.94
2019-02-07T04:46:26.414Z,100553.58
2019-02-07T04:49:38.858Z,100546.32
2019-02-07T04:53:01.369Z,100542.95
2019-02-07T04:56:24.121Z,100541.71
2019-02-07T05:09:17.874Z,100502.68
2019-02-07T05:12:40.415Z,100505.63
2019-02-07T05:16:03.183Z,100510.33
2019-02-07T05:19:25.710Z,100504.77
2019-02-07T05:22:39.901Z,100505.42
2019-02-07T05:25:44.941Z,100498.63
2019-02-07T05:29:04.933Z,100502.01
2019-02-07T05:32:12.760Z,100492.58
2019-02-07T05:35:21.115Z,100489.23
2019-02-07T05:38:41.442Z,100490.86
2019-02-07T05:42:01.678Z,100487.87
2019-02-07T05:45:24.572Z,100477.19
2019-02-07T05:48:46.059Z,100463.73
2019-02-07T05:52:07.572Z,100474.22
2019-02-07T05:55:21.630Z,100465.20
2019-02-07T05:58:29.775Z,100449.17
2019-02-07T06:01:37.657Z,100449.66
2019-02-07T06:04:48.456Z,100443.33
2019-02-07T06:07:53.639Z,100436.40
2019-02-07T06:11:01.543Z,100433.23
2019-02-07T06:14:23.706Z,100430.75
2019-02-07T06:17:44.998Z,100427.58
2019-02-07T06:20:50.085Z,100424.66
2019-02-07T06:24:04.098Z,100425.56
2019-02-07T06:27:14.859Z,100419.92
2019-02-07T06:30:20.977Z,100412.92
2019-02-07T06:33:41.255Z,100399.31
2019-02-07T06:36:49.199Z,100401.92
2019-02-07T06:40:00.365Z,100402.20
2019-02-07T06:43:21.595Z,100397.11
2019-02-07T06:46:26.635Z,100401.78
2019-02-07T06:49:49.786Z,100387.70
2019-02-07T06:53:11.348Z,100393.59
2019-02-07T06:56:16.517Z,100382.87
2019-02-07T06:59:33.358Z,100374.27
2019-02-07T07:02:38.461Z,100378.63
2019-02-07T07:05:43.809Z,100370.38
2019-02-07T07:09:05.280Z,100372.64
2019-02-07T07:12:10.556Z,100375.66
2019-02-07T07:15:21.492Z,100381.82
2019-02-07T07:18:43.447Z,100377.56
2019-02-07T07:22:07.299Z,100372.80
2019-02-07T07:25:12.680Z,100375.41
2019-02-07T07:28:34.537Z,100369.45
2019-02-07T07:31:39.888Z,100368.19
2019-02-07T07:35:01.731Z,100352.66
2019-02-07T07:38:06.904Z,100355.77
2019-02-07T07:41:24.661Z,100354.55
2019-02-07T07:44:29.831Z,100364.05
2019-02-07T07:47:51.275Z,100366.63
2019-02-07T07:50:59.289Z,100364.59
2019-02-07T07:54:20.631Z,100369.43
2019-02-07T07:57:25.640Z,100372.52
2019-02-07T08:00:45.975Z,100363.55
2019-02-07T08:03:54.081Z,100369.58
2019-02-07T08:07:04.560Z,100362.34
2019-02-07T08:10:22.306Z,100364.07
2019-02-07T08:13:39.595Z,100361.16
2019-02-07T08:16:44.654Z,100363.34
2019-02-07T08:19:49.704Z,100380.47
2019-02-07T08:22:57.649Z,100361.67
2019-02-07T08:26:11.610Z,100372.06
2019-02-07T08:29:22.758Z,100374.72
2019-02-07T08:32:42.835Z,100362.70
2019-02-07T08:35:50.594Z,100371.75
2019-02-07T08:39:01.610Z,100372.60
2019-02-07T08:42:23.352Z,100377.78
2019-02-07T08:45:29.030Z,100371.30
2019-02-07T08:48:36.772Z,100363.53
2019-02-07T08:51:50.735Z,100367.86
2019-02-07T08:54:55.863Z,100373.45
2019-02-07T08:58:10.010Z,100385.11
2019-02-07T09:01:17.687Z,100394.62
2019-02-07T09:04:39.118Z,100399.80
2019-02-07T09:08:00.772Z,100392.00
2019-02-07T09:11:22.921Z,100396.73
2019-02-07T09:14:28.000Z,100389.86
2019-02-07T09:17:36.085Z,100392.87
2019-02-07T09:20:43.870Z,100398.02
2019-02-07T09:24:05.227Z,100395.47
2019-02-07T09:27:19.024Z,100404.11
2019-02-07T09:30:40.859Z,100410.09
2019-02-07T09:33:48.876Z,100408.36
2019-02-07T09:36:57.006Z,100421.73
2019-02-07T09:40:11.602Z,100412.69
2019-02-07T09:43:31.596Z,100437.70
2019-02-07T09:46:42.140Z,100433.84
2019-02-07T09:49:59.433Z,100435.57
2019-02-07T09:53:04.541Z,100434.70
2019-02-07T09:56:10.888Z,100441.17
2019-02-07T09:59:26.291Z,100449.83
2019-02-07T10:02:55.718Z,100464.52
2019-02-07T10:06:09.579Z,100468.88
2019-02-07T10:09:18.076Z,100466.73
2019-02-07T10:12:38.353Z,100453.36
2019-02-07T10:15:43.551Z,100459.00
2019-02-07T10:18:51.771Z,100456.88
2019-02-07T10:21:59.761Z,100467.24
2019-02-07T10:25:04.859Z,100467.27
2019-02-07T10:28:12.786Z,100465.11
2019-02-07T10:31:17.937Z,100466.42
2019-02-07T10:34:39.109Z,100462.97
2019-02-07T10:37:56.202Z,100461.22
2019-02-07T10:41:01.490Z,100464.27
2019-02-07T10:44:09.655Z,100467.76
2019-02-07T10:47:23.526Z,100453.91
2019-02-07T10:50:45.387Z,100451.27
2019-02-07T10:53:50.437Z,100450.85
2019-02-07T10:57:11.871Z,100446.52
2019-02-07T11:00:25.528Z,100458.19
2019-02-07T11:03:39.854Z,100460.33
2019-02-07T11:06:50.622Z,100445.66
2019-02-07T11:09:55.964Z,100443.49
2019-02-07T11:13:17.570Z,100437.92
2019-02-07T11:16:40.941Z,100430.56
2019-02-07T11:20:01.089Z,100437.02
2019-02-07T11:23:12.201Z,100426.27
2019-02-07T11:26:33.554Z,100439.22
2019-02-07T11:29:53.377Z,100433.64
2019-02-07T11:32:58.793Z,100442.30
2019-02-07T11:36:03.836Z,100431.91
2019-02-07T11:39:16.733Z,100430.17
2019-02-07T11:42:21.797Z,100433.20
2019-02-07T11:45:27.202Z,100431.93
2019-02-07T11:48:47.417Z,100422.81
2019-02-07T11:51:55.122Z,100418.03
2019-02-07T11:55:00.410Z,100428.36
2019-02-07T11:58:22.496Z,100430.14
2019-02-07T12:01:38.341Z,100429.22
2019-02-07T12:04:59.859Z,100439.19
2019-02-07T12:08:13.448Z,100425.81
2019-02-07T12:11:22.144Z,100426.19
2019-02-07T12:14:27.201Z,100425.75
2019-02-07T12:17:48.497Z,100431.65
2019-02-07T12:20:53.509Z,100433.34
2019-02-07T12:24:04.530Z,100429.38
2019-02-07T12:27:12.337Z,100425.41
2019-02-07T12:30:31.703Z,100427.23
2019-02-07T12:33:36.752Z,100429.05
2019-02-07T12:36:57.038Z,100424.31
2019-02-07T12:40:09.069Z,100417.74
2019-02-07T12:43:16.648Z,100423.80
2019-02-07T12:46:35.322Z,100409.86
2019-02-07T12:49:46.658Z,100403.81
2019-02-07T12:52:51.708Z,100400.41
2019-02-07T12:56:03.407Z,100411.44
2019-02-07T12:59:14.482Z,100404.67
2019-02-07T13:02:22.199Z,100399.48
2019-02-07T13:05:27.236Z,100394.28
2019-02-07T13:08:41.501Z,100394.60
2019-02-07T13:11:46.554Z,100393.13
2019-02-07T13:15:00.692Z,100395.95
2019-02-07T13:18:12.058Z,100384.48
2019-02-07T13:21:23.444Z,100388.03
2019-02-07T13:24:31.261Z,100385.23
2019-02-07T13:27:39.780Z,100392.41
2019-02-07T13:30:50.489Z,100388.52
2019-02-07T13:33:58.244Z,100398.50
2019-02-07T13:37:03.576Z,100396.61
2019-02-07T13:40:11.998Z,100394.39
2019-02-07T13:43:20.324Z,100397.39
2019-02-07T13:46:41.313Z,100386.91
2019-02-07T13:49:52.080Z,100394.24
2019-02-07T13:53:04.627Z,100388.70
2019-02-07T13:56:26.249Z,100379.08
2019-02-07T13:59:47.810Z,100385.41
2019-02-07T14:03:09.013Z,100390.88
2019-02-07T14:06:31.874Z,100400.92
2019-02-07T14:09:37.300Z,100398.95
2019-02-07T14:12:42.344Z,100399.89
2019-02-07T14:15:59.668Z,100409.05
2019-02-07T14:19:20.942Z,100401.98
2019-02-07T14:22:26.006Z,100404.62
2019-02-07T14:25:47.842Z,100405.52
2019-02-07T14:28:55.339Z,100413.39
2019-02-07T14:32:09.134Z,100424.19
2019-02-07T14:35:33.243Z,100427.20
2019-02-07T14:38:43.772Z,100425.44
2019-02-07T14:41:51.864Z,100431.18
2019-02-07T14:44:56.918Z,100438.05
2019-02-07T14:48:00.310Z,100438.96
2019-02-07T14:51:03.784Z,100435.91
2019-02-07T14:54:07.183Z,100447.14
2019-02-07T14:57:10.647Z,100454.00
2019-02-07T15:00:19.770Z,100455.23
2019-02-07T15:03:23.238Z,100458.20
2019-02-07T15:06:26.635Z,100464.81
2019-02-07T15:09:30.106Z,100467.83
2019-02-07T15:12:33.506Z,100469.56
2019-02-07T15:15:36.888Z,100464.41
2019-02-07T15:18:40.629Z,100463.16
2019-02-07T15:21:44.113Z,100468.86
2019-02-07T15:24:47.578Z,100464.50
2019-02-07T15:27:50.999Z,100469.31
2019-02-07T15:30:54.386Z,100469.30
2019-02-07T15:33:58.070Z,100480.55
2019-02-07T15:37:01.469Z,100484.89
2019-02-07T15:40:10.581Z,100487.52
2019-02-07T15:43:14.082Z,100487.10
2019-02-07T15:46:17.501Z,100493.98
2019-02-07T15:49:20.903Z,100499.24
2019-02-07T15:52:24.389Z,100504.84
2019-02-07T15:55:27.873Z,100507.00
2019-02-07T15:58:47.640Z,100505.73
2019-02-07T16:02:07.175Z,100508.35
2019-02-07T16:05:12.684Z,100504.43
2019-02-07T16:08:16.169Z,100502.30
2019-02-07T16:11:19.927Z,100501.00
2019-02-07T16:14:23.385Z,100502.71
2019-02-07T16:17:26.790Z,100506.61
2019-02-07T16:20:30.260Z,100510.52
2019-02-07T16:23:33.731Z,100506.64
2019-02-07T16:26:39.066Z,100510.55
2019-02-07T16:29:42.704Z,100507.94
2019-02-07T16:32:47.139Z,100513.12
2019-02-07T16:35:50.741Z,100517.88
2019-02-07T16:38:54.128Z,100510.09
2019-02-07T16:42:05.795Z,100513.55
2019-02-07T16:45:07.896Z,100511.80
2019-02-07T16:48:11.456Z,100512.25
2019-02-07T16:51:15.150Z,100518.30
2019-02-07T16:54:18.933Z,100518.72
2019-02-07T16:57:22.645Z,100515.69
2019-02-07T17:00:36.614Z,100524.77
2019-02-07T17:03:40.741Z,100531.21
2019-02-07T17:06:44.132Z,100532.12
2019-02-07T17:09:47.535Z,100532.50
2019-02-07T17:12:52.050Z,100532.07
2019-02-07T17:15:55.475Z,100535.50
2019-02-07T17:18:58.912Z,100549.31
2019-02-07T17:22:02.318Z,100552.27
2019-02-07T17:25:45.616Z,100556.16
2019-02-07T17:28:49.450Z,100555.25
2019-02-07T17:31:53.078Z,100558.75
2019-02-07T17:34:56.483Z,100556.11
2019-02-07T17:38:00.422Z,100559.98
2019-02-07T17:41:04.202Z,100560.44
2019-02-07T17:44:27.529Z,100561.27
2019-02-07T17:47:50.660Z,100562.57
2019-02-07T17:50:54.317Z,100572.91
2019-02-07T17:53:57.716Z,100580.24
2019-02-07T17:57:01.096Z,100578.88
2019-02-07T18:00:44.415Z,100585.80
2019-02-07T18:03:47.801Z,100584.55
2019-02-07T18:06:51.299Z,100592.27
2019-02-07T18:09:55.029Z,100593.94
2019-02-07T18:12:58.418Z,100589.65
2019-02-07T18:16:21.418Z,100603.88
2019-02-07T18:19:25.292Z,100611.25
2019-02-07T18:22:28.774Z,100619.02
2019-02-07T18:25:32.314Z,100616.41
2019-02-07T18:28:35.710Z,100615.58
2019-02-07T18:31:58.587Z,100621.61
2019-02-07T18:35:21.514Z,100627.75
2019-02-07T18:38:24.891Z,100625.56
2019-02-07T18:41:47.734Z,100635.94
2019-02-07T18:44:51.213Z,100628.64
2019-02-07T18:47:54.669Z,100634.16
2019-02-07T18:50:58.070Z,100638.81
2019-02-07T18:54:01.732Z,100647.48
2019-02-07T18:57:05.264Z,100648.36
2019-02-07T19:00:48.622Z,100651.28
2019-02-07T19:03:52.013Z,100651.23
2019-02-07T19:06:55.419Z,100653.66
2019-02-07T19:10:19.016Z,100667.84
2019-02-07T19:13:22.743Z,100658.03
2019-02-07T19:16:26.148Z,100666.15
2019-02-07T19:19:48.865Z,100668.41
2019-02-07T19:22:52.261Z,100675.97
2019-02-07T19:25:55.898Z,100684.50
2019-02-07T19:28:59.611Z,100690.17
2019-02-07T19:32:09.865Z,100678.56
2019-02-07T19:35:32.923Z,100692.75
2019-02-07T19:38:36.397Z,100688.72
2019-02-07T19:41:39.782Z,100704.77
2019-02-07T19:45:02.771Z,100706.39
2019-02-07T19:48:27.447Z,100706.84
2019-02-07T19:51:31.126Z,100718.41
2019-02-07T19:54:34.525Z,100712.88
2019-02-07T19:57:37.908Z,100719.45
2019-02-07T20:00:41.296Z,100729.59
2019-02-07T20:03:44.759Z,100734.77
2019-02-07T20:06:48.148Z,100738.37
2019-02-07T20:09:51.803Z,100739.16
2019-02-07T20:16:57.962Z,100750.30
2019-02-07T20:20:01.370Z,100760.61
2019-02-07T20:23:24.866Z,100757.31
2019-02-07T20:26:47.720Z,100749.37
2019-02-07T20:30:31.080Z,100754.96
2019-02-07T20:33:34.485Z,100754.60
2019-02-07T20:36:38.407Z,100762.39
2019-02-07T20:39:41.806Z,100762.66
2019-02-07T20:46:15.216Z,100764.08
2019-02-07T20:49:18.605Z,100771.47
2019-02-07T20:52:27.179Z,100772.37
2019-02-07T20:55:27.191Z,100777.44
2019-02-07T20:58:30.571Z,100771.92
2019-02-07T21:01:33.963Z,100767.98
2019-02-07T21:04:37.605Z,100767.23
2019-02-07T21:07:41.013Z,100769.97
2019-02-07T21:10:44.643Z,100774.48
2019-02-07T21:13:48.056Z,100779.42
2019-02-07T21:16:51.435Z,100778.70
2019-02-07T21:19:54.831Z,100784.70
2019-02-07T21:23:39.869Z,100787.58
2019-02-07T21:26:43.261Z,100785.41
2019-02-07T21:29:46.969Z,100782.75
2019-02-07T21:36:19.624Z,100802.94
2019-02-07T21:39:23.248Z,100793.88
2019-02-07T21:42:26.701Z,100805.44
2019-02-07T21:46:10.055Z,100810.18
2019-02-07T21:49:13.453Z,100812.69
2019-02-07T21:52:17.101Z,100820.42
2019-02-07T21:56:02.126Z,100822.30
2019-02-07T21:59:05.689Z,100817.38
2019-02-07T22:02:09.073Z,100820.61
2019-02-07T22:05:12.526Z,100826.64
2019-02-07T22:08:16.166Z,100818.63
2019-02-07T22:11:19.589Z,100829.19
2019-02-07T22:14:22.961Z,100825.69
2019-02-07T22:17:26.351Z,100833.88
2019-02-07T22:20:50.535Z,100833.64
2019-02-07T22:23:53.932Z,100840.56
2019-02-07T22:26:57.322Z,100839.73
2019-02-07T22:30:00.732Z,100834.66
2019-02-07T22:33:44.030Z,100833.74
2019-02-07T22:36:47.694Z,100845.97
2019-02-07T22:39:51.334Z,100847.69
2019-02-07T22:42:55.202Z,100846.30
2019-02-07T22:45:59.075Z,100850.05
2019-02-07T22:49:02.464Z,100855.67
2019-02-07T22:52:05.984Z,100848.55
2019-02-07T22:55:11.359Z,100857.27
2019-02-07T22:58:14.772Z,100854.43
2019-02-07T23:01:38.937Z,100852.42
2019-02-07T23:04:42.413Z,100856.65
2019-02-07T23:07:46.033Z,100849.86
2019-02-07T23:10:49.674Z,100846.41
2019-02-07T23:13:53.408Z,100848.92
2019-02-07T23:16:56.885Z,100851.39
2019-02-07T23:20:00.261Z,100859.70
2019-02-07T23:23:43.549Z,100862.05
2019-02-07T23:26:46.944Z,100861.61
2019-02-07T23:29:50.332Z,100856.72
2019-02-07T23:32:54.008Z,100851.39
2019-02-07T23:35:57.408Z,100858.50
2019-02-07T23:39:00.799Z,100859.55
2019-02-07T23:45:34.070Z,100858.88
2019-02-07T23:48:37.526Z,100862.33
2019-02-07T23:51:41.101Z,100859.70
2019-02-07T23:54:44.549Z,100862.62
2019-02-07T23:57:48.020Z,100861.41
